logo
Rechercher aéroport 
image banner adimage banner adimage banner ad
image banner ad

VT34 - Major W Guth

Situé à Westminster, United States

ICAO - VT34, IATA -

Données fournies par Airmate  

Information générale

Coordonnées: N43°3'36" W72°29'31"
Élévation : 819 feet MSL.
Variation magnétique : -15° East
Voir autres Aéroports à Vermont

Données opérationnelles

Special qualification required
Heure actuelle UTC:
Heure actuelle locale:
Météo à : KEEN - Dillant/Hopkins ( 25 km )
METAR: KEEN 180056Z AUTO 08003KT 5SM HZ OVC090 18/09 A3001 RMK AO2 SLP164 T01780094 $
Voir NOTAMs / SUP AIP / TFR affectant cet aéroport [VIEW]
Fréquences de communication: [VIEW]

Pistes:

Identifiant RWYQFULongueur (ft)Largeur (ft)SurfaceLDA (ft)
01120090GRAVEL
19120090GRAVEL

Coordonnées de l'aéroport

Adresse: Westminster United States

Vue satellite de VT34